createdAt,value
2018-09-25T00:03:10.425Z,99.90
2018-09-25T00:07:56.478Z,99.90
2018-09-25T00:12:41.540Z,99.90
2018-09-25T00:17:26.946Z,99.90
2018-09-25T00:22:13.267Z,99.90
2018-09-25T00:26:58.509Z,99.90
2018-09-25T00:31:44.060Z,99.90
2018-09-25T00:36:29.544Z,99.90
2018-09-25T00:41:15.259Z,99.90
2018-09-25T00:46:00.614Z,99.90
2018-09-25T00:50:46.569Z,99.90
2018-09-25T00:55:32.202Z,99.90
2018-09-25T01:00:17.941Z,99.90
2018-09-25T01:05:03.232Z,99.90
2018-09-25T01:09:49.074Z,99.90
2018-09-25T01:14:34.469Z,99.90
2018-09-25T01:19:19.500Z,99.90
2018-09-25T01:24:05.008Z,99.90
2018-09-25T01:28:50.338Z,99.90
2018-09-25T01:33:35.624Z,99.90
2018-09-25T01:38:21.027Z,99.90
2018-09-25T01:43:06.712Z,99.90
2018-09-25T01:47:52.045Z,99.90
2018-09-25T01:52:37.456Z,99.90
2018-09-25T01:57:23.219Z,99.90
2018-09-25T02:02:09.141Z,99.90
2018-09-25T02:06:55.357Z,99.90
2018-09-25T02:11:40.421Z,99.90
2018-09-25T02:16:25.762Z,99.90
2018-09-25T02:21:10.861Z,99.90
2018-09-25T02:25:56.417Z,99.90
2018-09-25T02:30:41.619Z,99.90
2018-09-25T02:35:26.970Z,99.90
2018-09-25T02:40:12.184Z,99.90
2018-09-25T02:44:57.381Z,99.90
2018-09-25T02:49:43.669Z,99.90
2018-09-25T02:54:29.112Z,99.90
2018-09-25T02:59:14.589Z,99.90
2018-09-25T03:04:00.406Z,99.90
2018-09-25T03:08:45.465Z,99.90
2018-09-25T03:13:31.388Z,99.90
2018-09-25T03:18:18.182Z,99.90
2018-09-25T03:23:04.326Z,99.90
2018-09-25T03:27:49.415Z,99.90
2018-09-25T03:32:35.538Z,99.90
2018-09-25T03:37:20.974Z,99.90
2018-09-25T03:42:06.133Z,99.90
2018-09-25T03:46:51.721Z,99.90
2018-09-25T03:51:38.729Z,99.90
2018-09-25T03:56:24.753Z,99.90
2018-09-25T04:01:10.425Z,99.90
2018-09-25T04:05:56.419Z,99.90
2018-09-25T04:10:41.733Z,99.90
2018-09-25T04:15:27.771Z,99.90
2018-09-25T04:20:13.013Z,99.90
2018-09-25T04:24:59.814Z,99.90
2018-09-25T04:29:45.264Z,99.90
2018-09-25T04:34:30.632Z,99.90
2018-09-25T04:39:16.067Z,99.90
2018-09-25T04:44:01.447Z,99.90
2018-09-25T04:48:46.835Z,99.90
2018-09-25T04:53:32.183Z,99.90
2018-09-25T04:58:17.402Z,99.90
2018-09-25T05:03:03.218Z,99.90
2018-09-25T05:07:48.833Z,99.90
2018-09-25T05:12:34.163Z,99.90
2018-09-25T05:17:19.519Z,99.90
2018-09-25T05:22:04.873Z,99.90
2018-09-25T05:26:50.136Z,99.90
2018-09-25T05:31:35.568Z,99.90
2018-09-25T05:36:20.959Z,99.90
2018-09-25T05:41:07.437Z,99.90
2018-09-25T05:45:52.520Z,99.90
2018-09-25T05:50:38.090Z,99.90
2018-09-25T05:55:23.462Z,99.90
2018-09-25T06:00:08.774Z,99.90
2018-09-25T06:04:56.356Z,99.90
2018-09-25T06:09:41.656Z,99.90
2018-09-25T06:14:26.997Z,99.90
2018-09-25T06:19:12.233Z,99.90
2018-09-25T06:23:57.424Z,99.90
2018-09-25T06:28:43.752Z,99.90
2018-09-25T06:33:30.232Z,99.90
2018-09-25T06:38:16.261Z,99.90
2018-09-25T06:43:02.752Z,99.90
2018-09-25T06:47:48.490Z,99.90
2018-09-25T06:52:34.013Z,99.90
2018-09-25T06:57:20.061Z,99.90
2018-09-25T07:02:05.586Z,99.90
2018-09-25T07:06:50.986Z,99.90
2018-09-25T07:11:35.980Z,99.90
2018-09-25T07:16:21.341Z,99.90
2018-09-25T07:21:07.027Z,99.90
2018-09-25T07:25:52.333Z,99.60
2018-09-25T07:30:37.892Z,96.70
2018-09-25T07:35:24.353Z,92.00
2018-09-25T07:40:09.645Z,89.90
2018-09-25T07:44:55.126Z,86.20
2018-09-25T07:49:41.015Z,84.00
2018-09-25T07:54:27.578Z,76.10
2018-09-25T07:59:13.153Z,69.70
2018-09-25T08:03:58.716Z,68.20
2018-09-25T08:08:43.906Z,65.10
2018-09-25T08:13:30.416Z,63.90
2018-09-25T08:18:15.613Z,60.80
2018-09-25T08:23:01.297Z,57.60
2018-09-25T08:27:46.933Z,56.30
2018-09-25T08:32:32.982Z,56.20
2018-09-25T08:37:18.226Z,54.10
2018-09-25T08:42:03.441Z,51.70
2018-09-25T08:46:49.120Z,53.00
2018-09-25T08:51:34.402Z,58.30
2018-09-25T08:56:20.023Z,60.90
2018-09-25T09:01:06.127Z,58.10
2018-09-25T09:05:51.229Z,57.40
2018-09-25T09:10:36.821Z,58.90
2018-09-25T09:15:22.188Z,57.90
2018-09-25T09:20:07.755Z,56.00
2018-09-25T09:24:53.213Z,53.60
2018-09-25T09:29:39.007Z,49.40
2018-09-25T09:34:24.566Z,48.20
2018-09-25T09:39:11.560Z,45.70
2018-09-25T09:43:58.727Z,45.70
2018-09-25T09:48:45.108Z,44.30
2018-09-25T09:53:30.542Z,45.20
2018-09-25T09:58:17.101Z,48.90
2018-09-25T10:03:02.374Z,47.20
2018-09-25T10:07:48.377Z,49.00
2018-09-25T10:12:33.595Z,49.90
2018-09-25T10:17:19.538Z,48.40
2018-09-25T10:22:04.850Z,48.60
2018-09-25T10:26:50.927Z,47.90
2018-09-25T10:31:37.170Z,47.10
2018-09-25T10:36:22.833Z,46.20
2018-09-25T10:41:08.576Z,44.20
2018-09-25T10:45:53.724Z,45.20
2018-09-25T10:50:39.407Z,45.00
2018-09-25T10:55:25.912Z,42.70
2018-09-25T11:00:14.095Z,43.90
2018-09-25T11:04:59.564Z,44.20
2018-09-25T11:09:44.793Z,43.10
2018-09-25T11:14:30.154Z,43.00
2018-09-25T11:19:15.513Z,43.70
2018-09-25T11:24:01.072Z,43.40
2018-09-25T11:28:47.340Z,44.00
2018-09-25T11:33:32.775Z,42.90
2018-09-25T11:38:19.460Z,42.90
2018-09-25T11:43:05.597Z,43.50
2018-09-25T11:47:50.901Z,42.30
2018-09-25T11:52:36.525Z,42.80
2018-09-25T11:57:21.821Z,42.60
2018-09-25T12:02:07.129Z,44.20
2018-09-25T12:06:52.276Z,43.00
2018-09-25T12:11:38.283Z,42.20
2018-09-25T12:16:23.592Z,43.80
2018-09-25T12:21:08.730Z,43.50
2018-09-25T12:25:54.661Z,42.50
2018-09-25T12:30:41.403Z,41.70
2018-09-25T12:35:26.878Z,43.10
2018-09-25T12:40:12.293Z,42.10
2018-09-25T12:44:57.585Z,42.10
2018-09-25T12:49:43.144Z,43.30
2018-09-25T12:54:28.426Z,43.70
2018-09-25T12:59:14.199Z,43.10
2018-09-25T13:04:00.072Z,42.80
2018-09-25T13:08:45.414Z,43.40
2018-09-25T13:13:31.049Z,42.80
2018-09-25T13:18:16.479Z,42.00
2018-09-25T13:23:01.780Z,42.10
2018-09-25T13:27:47.751Z,41.60
2018-09-25T13:32:33.097Z,41.80
2018-09-25T13:37:19.038Z,44.00
2018-09-25T13:42:05.279Z,45.00
2018-09-25T13:46:50.885Z,42.80
2018-09-25T13:51:36.870Z,43.10
2018-09-25T13:56:22.201Z,43.00
2018-09-25T14:01:07.829Z,41.70
2018-09-25T14:05:53.037Z,42.60
2018-09-25T14:10:38.409Z,43.30
2018-09-25T14:15:24.682Z,44.20
2018-09-25T14:20:10.874Z,44.80
2018-09-25T14:24:56.199Z,44.90
2018-09-25T14:29:42.162Z,47.90
2018-09-25T14:34:27.401Z,47.70
2018-09-25T14:39:13.697Z,48.80
2018-09-25T14:43:59.905Z,49.50
2018-09-25T14:48:45.293Z,50.30
2018-09-25T14:53:31.386Z,51.00
2018-09-25T14:58:16.940Z,51.20
2018-09-25T15:03:02.037Z,52.40
2018-09-25T15:07:47.333Z,52.70
2018-09-25T15:12:32.582Z,54.70
2018-09-25T15:17:17.932Z,55.40
2018-09-25T15:22:03.424Z,55.10
2018-09-25T15:26:48.696Z,55.90
2018-09-25T15:31:34.201Z,56.00
2018-09-25T15:36:19.507Z,56.60
2018-09-25T15:41:04.893Z,56.70
2018-09-25T15:45:50.466Z,57.50
2018-09-25T15:50:35.710Z,59.20
2018-09-25T15:55:21.307Z,59.20
2018-09-25T16:00:06.521Z,59.70
2018-09-25T16:04:51.795Z,60.20
2018-09-25T16:09:37.140Z,60.00
2018-09-25T16:14:22.451Z,60.00
2018-09-25T16:19:07.758Z,61.40
2018-09-25T16:23:53.084Z,62.50
2018-09-25T16:28:38.425Z,62.20
2018-09-25T16:33:23.852Z,61.90
2018-09-25T16:38:10.318Z,62.40
2018-09-25T16:42:55.546Z,64.80
2018-09-25T16:47:41.201Z,65.10
2018-09-25T16:52:27.390Z,64.30
2018-09-25T16:57:12.577Z,65.60
2018-09-25T17:01:59.183Z,65.90
2018-09-25T17:06:44.540Z,67.40
2018-09-25T17:11:30.378Z,68.70
2018-09-25T17:16:15.637Z,69.80
2018-09-25T17:21:00.952Z,69.50
2018-09-25T17:25:46.125Z,69.80
2018-09-25T17:30:31.461Z,71.10
2018-09-25T17:35:17.874Z,72.40
2018-09-25T17:40:03.127Z,73.80
2018-09-25T17:44:48.409Z,75.80
2018-09-25T17:49:34.097Z,79.00
2018-09-25T17:54:19.446Z,83.60
2018-09-25T17:59:04.829Z,87.70
2018-09-25T18:03:49.969Z,90.70
2018-09-25T18:08:35.277Z,92.50
2018-09-25T18:13:21.534Z,94.50
2018-09-25T18:18:07.022Z,95.90
2018-09-25T18:22:52.097Z,97.60
2018-09-25T18:27:37.210Z,99.00
2018-09-25T18:32:22.365Z,99.90
2018-09-25T18:37:07.545Z,99.90
2018-09-25T18:41:53.229Z,99.90
2018-09-25T18:46:38.668Z,99.90
2018-09-25T18:51:23.825Z,99.90
2018-09-25T18:56:09.817Z,99.90
2018-09-25T19:00:55.189Z,99.90
2018-09-25T19:05:40.668Z,99.90
2018-09-25T19:10:25.750Z,99.90
2018-09-25T19:15:10.911Z,99.90
2018-09-25T19:19:56.150Z,99.90
2018-09-25T19:24:41.855Z,99.90
2018-09-25T19:29:27.282Z,99.90
2018-09-25T19:34:12.574Z,99.90
2018-09-25T19:38:57.833Z,99.90
2018-09-25T19:43:43.077Z,99.90
2018-09-25T19:48:28.082Z,99.90
2018-09-25T19:53:13.126Z,99.90
2018-09-25T19:57:58.370Z,99.90
2018-09-25T20:02:43.904Z,99.90
2018-09-25T20:07:29.205Z,99.90
2018-09-25T20:12:14.696Z,99.90
2018-09-25T20:17:00.295Z,99.90
2018-09-25T20:21:45.404Z,99.90
2018-09-25T20:26:30.837Z,99.90
2018-09-25T20:31:16.672Z,99.90
2018-09-25T20:36:03.052Z,99.90
2018-09-25T20:40:48.533Z,99.90
2018-09-25T20:45:33.781Z,99.90
2018-09-25T20:50:19.237Z,99.90
2018-09-25T20:55:04.616Z,99.90
2018-09-25T20:59:50.464Z,99.90
2018-09-25T21:04:36.282Z,99.90
2018-09-25T21:09:21.845Z,99.90
2018-09-25T21:14:07.218Z,99.90
2018-09-25T21:18:53.302Z,99.90
2018-09-25T21:23:38.610Z,99.90
2018-09-25T21:28:23.925Z,99.90
2018-09-25T21:33:09.239Z,99.90
2018-09-25T21:37:54.660Z,99.90
2018-09-25T21:42:39.976Z,99.90
2018-09-25T21:47:25.538Z,99.90
2018-09-25T21:52:11.251Z,99.90
2018-09-25T21:56:56.730Z,99.90
2018-09-25T22:01:41.678Z,99.90
2018-09-25T22:06:27.210Z,99.90
2018-09-25T22:11:13.589Z,99.90
2018-09-25T22:15:58.770Z,99.90
2018-09-25T22:20:44.708Z,99.90
2018-09-25T22:25:30.389Z,99.90
2018-09-25T22:30:16.904Z,99.90
2018-09-25T22:35:02.066Z,99.90
2018-09-25T22:39:47.395Z,99.90
2018-09-25T22:44:33.052Z,99.90
2018-09-25T22:49:18.825Z,99.90
2018-09-25T22:54:04.211Z,99.90
2018-09-25T22:58:50.604Z,99.90
2018-09-25T23:03:36.054Z,99.90
2018-09-25T23:08:22.740Z,99.90
2018-09-25T23:13:08.145Z,99.90
2018-09-25T23:17:54.053Z,99.90
2018-09-25T23:22:39.262Z,99.90
2018-09-25T23:27:31.374Z,99.90
2018-09-25T23:32:16.505Z,99.90
2018-09-25T23:37:02.165Z,99.90
2018-09-25T23:41:47.625Z,99.90
2018-09-25T23:46:39.725Z,99.90
2018-09-25T23:51:25.989Z,99.90
2018-09-25T23:56:10.757Z,99.90
